Time;durP1;ratioP1;P1;durP2;ratioP2;P2;SDS_P1;SDS_P2;PMS_P1;PMS_P2;Temp;Humidity;BMP_temperature;BMP_pressure;BME280_temperature;BME280_humidity;BME280_pressure;Samples;Min_cycle;Max_cycle;Signal;HPM_P1;HPM_P2
2021/01/10 00:59:28;;;;;;;15.95;9.65;;;20.40;34.80;;;;;;5379374;24;20076;-87
2021/01/10 01:01:59;;;;;;;16.45;9.45;;;20.40;34.80;;;;;;4800454;29;20535;-87
2021/01/10 01:04:25;;;;;;;12.35;9.43;;;20.40;34.90;;;;;;4784254;29;20061;-87
2021/01/10 01:06:50;;;;;;;16.88;10.30;;;20.30;34.80;;;;;;4781682;29;20038;-87
2021/01/10 01:09:16;;;;;;;14.90;9.38;;;20.30;34.90;;;;;;4779105;29;20080;-87
2021/01/10 01:11:49;;;;;;;14.23;9.25;;;20.30;34.90;;;;;;4793689;29;20066;-88
2021/01/10 01:14:17;;;;;;;19.50;9.77;;;20.30;35.00;;;;;;4793604;29;20121;-88
2021/01/10 01:16:43;;;;;;;13.38;9.20;;;20.30;35.60;;;;;;4775303;30;20043;-87
2021/01/10 01:19:09;;;;;;;14.88;9.73;;;20.30;35.00;;;;;;4763986;29;20035;-88
2021/01/10 01:21:40;;;;;;;14.35;9.90;;;20.30;35.00;;;;;;4793546;29;20110;-87
2021/01/10 01:24:08;;;;;;;12.80;9.10;;;20.30;35.00;;;;;;4779034;29;20039;-89
2021/01/10 01:26:34;;;;;;;14.10;9.15;;;20.20;35.00;;;;;;4790011;29;20023;-88
2021/01/10 01:28:59;;;;;;;13.07;8.77;;;20.20;35.00;;;;;;4790761;29;20043;-88
2021/01/10 01:31:29;;;;;;;12.88;8.38;;;20.20;35.00;;;;;;4775890;29;20039;-88
2021/01/10 01:34:09;;;;;;;13.50;8.43;;;20.20;35.00;;;;;;4790252;29;20134;-88
2021/01/10 01:36:35;;;;;;;14.90;9.38;;;20.20;35.10;;;;;;4786057;29;20027;-89
2021/01/10 01:39:01;;;;;;;12.73;8.75;;;20.20;35.00;;;;;;4790068;29;20053;-88
2021/01/10 01:41:27;;;;;;;14.93;9.38;;;20.20;35.00;;;;;;4789484;29;20042;-87
2021/01/10 01:44:00;;;;;;;11.45;8.90;;;20.20;35.00;;;;;;4772215;30;20079;-87
2021/01/10 01:46:34;;;;;;;14.73;9.60;;;20.20;35.10;;;;;;4761426;29;20047;-87
2021/01/10 01:49:03;;;;;;;13.70;9.18;;;20.20;35.00;;;;;;4790432;29;20046;-88
2021/01/10 01:51:28;;;;;;;11.95;7.90;;;20.20;35.00;;;;;;4791714;29;20495;-87
2021/01/10 01:53:54;;;;;;;15.82;9.05;;;20.20;35.00;;;;;;4775679;29;20042;-88
2021/01/10 01:56:33;;;;;;;12.80;8.63;;;20.20;35.00;;;;;;4776100;29;20034;-88
2021/01/10 01:59:07;;;;;;;14.73;8.65;;;20.20;34.90;;;;;;4790657;29;20039;-87
2021/01/10 02:01:38;;;;;;;13.25;9.05;;;20.20;35.00;;;;;;4785209;29;20069;-87
2021/01/10 02:04:11;;;;;;;11.45;8.77;;;20.20;35.00;;;;;;4782500;29;20160;-91
2021/01/10 02:07:02;;;;;;;13.27;8.82;;;20.10;34.90;;;;;;4789624;29;20038;-87
2021/01/10 02:09:31;;;;;;;18.35;9.57;;;20.10;34.90;;;;;;4791523;29;20062;-88
2021/01/10 02:12:12;;;;;;;14.90;8.30;;;20.10;34.90;;;;;;4781953;29;20093;-87
2021/01/10 02:15:00;;;;;;;13.07;8.85;;;20.10;34.90;;;;;;4776268;29;20121;-87
2021/01/10 02:17:48;;;;;;;13.25;8.85;;;20.10;34.90;;;;;;4763511;30;20062;-87
2021/01/10 02:20:18;;;;;;;16.05;8.63;;;20.10;35.10;;;;;;4791512;29;20031;-88
2021/01/10 02:22:47;;;;;;;14.25;9.50;;;20.10;35.00;;;;;;4780965;29;20086;-88
2021/01/10 02:25:18;;;;;;;12.15;8.48;;;20.10;35.00;;;;;;4790090;29;20172;-88
2021/01/10 02:28:04;;;;;;;14.90;8.70;;;20.00;35.00;;;;;;4776175;29;20051;-88
2021/01/10 02:30:31;;;;;;;15.02;8.10;;;20.00;35.00;;;;;;4759282;29;20126;-88
2021/01/10 02:33:03;;;;;;;14.13;8.75;;;20.00;35.00;;;;;;4789757;29;20140;-86
2021/01/10 02:35:30;;;;;;;16.38;8.55;;;20.00;35.10;;;;;;4794030;29;20054;-87
2021/01/10 02:37:59;;;;;;;12.95;8.27;;;20.00;35.00;;;;;;4792744;29;20118;-87
2021/01/10 02:40:58;;;;;;;13.75;8.43;;;20.00;35.00;;;;;;4794926;29;20083;-87
2021/01/10 02:43:26;;;;;;;10.25;8.95;;;20.00;35.00;;;;;;4804016;29;20045;-88
2021/01/10 02:46:06;;;;;;;13.93;8.43;;;20.00;35.10;;;;;;4784522;29;20038;-87
2021/01/10 02:48:33;;;;;;;12.02;8.48;;;20.00;35.10;;;;;;4769478;29;20686;-87
2021/01/10 02:50:59;;;;;;;6.15;0.77;;;20.00;35.10;;;;;;4789375;29;20037;-88
2021/01/10 02:53:24;;;;;;;1.98;1.30;;;19.90;35.00;;;;;;4787137;29;20054;-88
2021/01/10 02:56:06;;;;;;;0.80;0.70;;;19.90;35.00;;;;;;4764049;29;20034;-87
2021/01/10 02:58:35;;;;;;;1.05;0.95;;;19.90;35.00;;;;;;4774922;29;20138;-87
2021/01/10 03:01:03;;;;;;;0.57;0.50;;;19.90;35.00;;;;;;4788044;29;20059;-87
2021/01/10 03:03:28;;;;;;;0.50;0.50;;;19.90;35.10;;;;;;4809718;29;20026;-87
2021/01/10 03:05:54;;;;;;;0.38;0.38;;;19.90;35.10;;;;;;4794995;29;20069;-87
2021/01/10 03:08:23;;;;;;;0.45;0.45;;;19.90;35.10;;;;;;4775534;29;20086;-87
2021/01/10 03:10:48;;;;;;;0.52;0.52;;;19.90;35.10;;;;;;4795316;29;20034;-87
2021/01/10 03:13:22;;;;;;;0.30;0.30;;;19.80;35.00;;;;;;4808447;29;20034;-88
2021/01/10 03:15:59;;;;;;;1.27;0.98;;;19.80;35.10;;;;;;4794987;29;20046;-87
2021/01/10 03:18:47;;;;;;;1.23;1.13;;;19.80;35.10;;;;;;4814414;29;20043;-88
2021/01/10 03:21:12;;;;;;;0.43;0.43;;;19.80;35.10;;;;;;4802201;29;20072;-87
2021/01/10 03:23:41;;;;;;;0.70;0.68;;;19.80;35.10;;;;;;4811244;29;20058;-87
2021/01/10 03:26:06;;;;;;;1.00;0.98;;;19.80;35.00;;;;;;4827356;29;20117;-88
2021/01/10 03:28:32;;;;;;;2.50;1.55;;;19.80;35.00;;;;;;4791671;29;20121;-88
2021/01/10 03:31:10;;;;;;;2.97;0.50;;;19.80;35.00;;;;;;4791909;29;20034;-89
2021/01/10 03:33:55;;;;;;;;;;;;;;;;;;;;;
2021/01/10 03:36:23;;;;;;;1.55;0.20;;;19.80;35.00;;;;;;4761783;30;20047;-89
2021/01/10 03:38:52;;;;;;;0.98;0.98;;;19.80;35.00;;;;;;4755357;30;20070;-89
2021/01/10 03:41:20;;;;;;;0.88;0.80;;;19.80;35.20;;;;;;4787044;29;20059;-88
2021/01/10 03:43:56;;;;;;;0.75;0.65;;;19.90;35.10;;;;;;4774510;29;20108;-89
2021/01/10 03:46:24;;;;;;;0.32;0.32;;;19.80;35.00;;;;;;4754813;30;20039;-89
2021/01/10 03:48:52;;;;;;;0.40;0.40;;;19.80;35.00;;;;;;4771761;29;20087;-88
2021/01/10 03:51:18;;;;;;;2.38;1.17;;;19.80;35.00;;;;;;4781114;29;20130;-89
2021/01/10 03:53:46;;;;;;;0.17;0.17;;;19.80;35.00;;;;;;4783235;30;20127;-89
2021/01/10 03:56:12;;;;;;;1.38;0.60;;;19.80;35.00;;;;;;4773718;30;20078;-89
2021/01/10 03:58:40;;;;;;;2.35;1.20;;;19.80;35.00;;;;;;4795129;29;20070;-88
2021/01/10 04:01:06;;;;;;;0.50;0.50;;;19.80;35.00;;;;;;4777023;29;20052;-88
2021/01/10 04:03:36;;;;;;;1.00;0.77;;;19.80;35.00;;;;;;4793966;29;20034;-88
2021/01/10 04:06:04;;;;;;;1.20;0.95;;;19.70;35.00;;;;;;4784182;29;20040;-88
2021/01/10 04:08:30;;;;;;;1.33;0.98;;;19.70;34.90;;;;;;4780431;29;20034;-88
2021/01/10 04:10:55;;;;;;;5.47;0.88;;;19.70;35.00;;;;;;4795997;29;20133;-88
2021/01/10 04:13:21;;;;;;;2.10;1.55;;;19.70;35.10;;;;;;4798566;29;20092;-88
2021/01/10 04:15:47;;;;;;;1.08;1.08;;;19.70;35.10;;;;;;4812619;29;20045;-88
2021/01/10 04:18:13;;;;;;;0.65;0.65;;;19.70;35.20;;;;;;4796848;29;20074;-89
2021/01/10 04:20:38;;;;;;;1.10;1.08;;;19.70;35.20;;;;;;4786190;29;20521;-88
2021/01/10 04:23:04;;;;;;;1.38;0.68;;;19.60;35.10;;;;;;4796148;29;20027;-88
2021/01/10 04:25:32;;;;;;;1.15;0.57;;;19.70;35.20;;;;;;4800715;29;20037;-88
2021/01/10 04:28:14;;;;;;;1.65;0.75;;;19.60;35.10;;;;;;4814336;29;20555;-88
2021/01/10 04:30:50;;;;;;;0.60;0.60;;;19.70;35.10;;;;;;4809807;29;20045;-88
2021/01/10 04:33:26;;;;;;;0.47;0.20;;;19.70;35.10;;;;;;4800134;29;20046;-89
2021/01/10 04:35:57;;;;;;;0.65;0.52;;;19.60;35.10;;;;;;4801248;29;20053;-89
2021/01/10 04:38:37;;;;;;;0.63;0.35;;;19.60;35.20;;;;;;4758961;29;20043;-89
2021/01/10 04:41:06;;;;;;;0.32;0.32;;;19.60;35.20;;;;;;4763549;30;20047;-89
2021/01/10 04:43:39;;;;;;;0.30;0.30;;;19.60;35.20;;;;;;4773623;29;20142;-89
2021/01/10 04:46:16;;;;;;;0.93;0.47;;;19.60;35.30;;;;;;4775232;30;20070;-88
2021/01/10 04:48:42;;;;;;;0.20;0.20;;;19.60;35.20;;;;;;4744824;29;21220;-89
2021/01/10 04:51:07;;;;;;;0.60;0.60;;;19.50;35.20;;;;;;4744013;30;20637;-89
2021/01/10 04:53:57;;;;;;;0.32;0.20;;;19.50;35.20;;;;;;4760659;29;20059;-88
2021/01/10 04:56:30;;;;;;;1.40;1.17;;;19.50;35.20;;;;;;4771091;30;20039;-88
2021/01/10 04:59:03;;;;;;;1.65;1.05;;;19.50;35.20;;;;;;4734305;30;20071;-88
2021/01/10 05:01:47;;;;;;;0.43;0.43;;;19.50;35.20;;;;;;4737589;30;20041;-88
2021/01/10 05:04:13;;;;;;;0.30;0.17;;;19.50;35.20;;;;;;4761938;30;20048;-88
2021/01/10 05:06:43;;;;;;;0.63;0.43;;;19.50;35.20;;;;;;4758050;30;20046;-89
2021/01/10 05:09:09;;;;;;;3.53;1.30;;;19.50;35.30;;;;;;4737767;30;20135;-89
2021/01/10 05:11:40;;;;;;;1.63;0.93;;;19.50;35.20;;;;;;4758028;30;20175;-89
2021/01/10 05:14:06;;;;;;;0.40;0.38;;;19.50;35.30;;;;;;4752168;30;20505;-88
2021/01/10 05:16:59;;;;;;;;;;;;;;;;;;;;;
2021/01/10 05:19:34;;;;;;;0.28;0.28;;;19.50;35.30;;;;;;4762483;30;20534;-89
2021/01/10 05:22:05;;;;;;;1.83;1.02;;;19.50;35.30;;;;;;4758979;30;20067;-89
2021/01/10 05:24:36;;;;;;;4.78;1.67;;;19.50;35.40;;;;;;4786049;29;20053;-89
2021/01/10 05:27:10;;;;;;;1.23;1.23;;;19.50;35.40;;;;;;4791298;29;20042;-89
2021/01/10 05:29:36;;;;;;;1.08;0.65;;;19.50;35.50;;;;;;4764557;29;20027;-88
2021/01/10 05:32:05;;;;;;;3.00;1.70;;;19.50;35.50;;;;;;4763061;29;20050;-89
2021/01/10 05:34:32;;;;;;;0.47;0.47;;;19.50;35.60;;;;;;4778992;29;20031;-88
2021/01/10 05:37:21;;;;;;;5.18;2.30;;;19.50;35.50;;;;;;4763937;29;20578;-89
2021/01/10 05:39:47;;;;;;;0.80;0.73;;;19.50;35.60;;;;;;4793539;29;20027;-89
2021/01/10 05:42:13;;;;;;;0.13;0.13;;;19.50;35.60;;;;;;4762066;29;20027;-88
2021/01/10 05:44:39;;;;;;;0.50;0.50;;;19.50;35.60;;;;;;4777740;29;20066;-89
2021/01/10 05:47:34;;;;;;;1.02;0.50;;;19.50;35.60;;;;;;4808441;29;20069;-88
2021/01/10 05:50:13;;;;;;;0.88;0.85;;;19.50;35.60;;;;;;4777796;29;20035;-89
2021/01/10 05:52:41;;;;;;;0.35;0.22;;;19.50;35.60;;;;;;4776969;29;20043;-89
2021/01/10 05:55:10;;;;;;;0.40;0.40;;;19.50;35.60;;;;;;4776168;29;20035;-89
2021/01/10 06:00:54;;;;;;;0.22;0.22;;;19.50;35.70;;;;;;4771245;29;20056;-89
2021/01/10 06:03:36;;;;;;;0.30;0.30;;;19.40;35.70;;;;;;4745123;30;20054;-90
2021/01/10 06:06:06;;;;;;;1.92;1.63;;;19.40;35.70;;;;;;4751726;30;20493;-90
2021/01/10 06:08:52;;;;;;;0.40;0.35;;;19.40;35.80;;;;;;4720414;30;20098;-89
2021/01/10 06:11:21;;;;;;;0.20;0.20;;;19.40;35.70;;;;;;4717905;30;20045;-89
2021/01/10 06:13:50;;;;;;;0.57;0.57;;;19.40;35.80;;;;;;4711583;30;20135;-89
2021/01/10 06:16:24;;;;;;;0.20;0.20;;;19.40;35.80;;;;;;4693915;30;20419;-89
2021/01/10 06:19:55;;;;;;;1.75;0.45;;;19.40;35.80;;;;;;4683438;30;20057;-89
2021/01/10 06:22:49;;;;;;;0.40;0.40;;;19.40;35.80;;;;;;4692347;30;20527;-89
2021/01/10 06:26:22;;;;;;;0.43;0.43;;;19.40;35.90;;;;;;4677572;30;20524;-89
2021/01/10 06:29:03;;;;;;;0.22;0.22;;;19.40;35.90;;;;;;4664443;30;20586;-90
2021/01/10 06:31:58;;;;;;;;;;;;;;;;;;;;;
2021/01/10 06:34:27;;;;;;;0.08;0.08;;;19.30;35.90;;;;;;4617445;30;20050;-90
2021/01/10 06:36:55;;;;;;;5.68;1.27;;;19.30;36.00;;;;;;4662636;30;20055;-89
2021/01/10 06:39:33;;;;;;;0.40;0.40;;;19.40;36.00;;;;;;4659424;30;20042;-90
2021/01/10 06:42:06;;;;;;;0.22;0.22;;;19.50;35.90;;;;;;4713375;30;20108;-89
2021/01/10 06:44:52;;;;;;;0.93;0.82;;;19.50;35.80;;;;;;4693194;30;20096;-88
2021/01/10 06:47:31;;;;;;;0.60;0.38;;;19.60;35.70;;;;;;4697589;30;20053;-88
2021/01/10 06:49:57;;;;;;;0.20;0.20;;;19.70;35.50;;;;;;4690512;30;20087;-91
2021/01/10 06:52:23;;;;;;;0.13;0.13;;;19.80;35.40;;;;;;4711634;30;20827;-90
2021/01/10 06:55:39;;;;;;;0.45;0.45;;;19.90;35.20;;;;;;4686962;30;20132;-90
2021/01/10 06:59:13;;;;;;;0.55;0.20;;;20.00;35.10;;;;;;4701367;30;20512;-90
2021/01/10 07:07:45;;;;;;;0.40;0.17;;;20.40;34.50;;;;;;4830949;29;20058;-71
2021/01/10 07:10:11;;;;;;;1.20;1.00;;;20.40;34.30;;;;;;4838163;29;20037;-71
2021/01/10 07:12:37;;;;;;;0.55;0.25;;;20.50;34.20;;;;;;4821572;29;20034;-70
2021/01/10 07:15:29;;;;;;;0.88;0.55;;;20.60;34.00;;;;;;4831342;29;20034;-70
2021/01/10 07:18:04;;;;;;;1.40;0.65;;;20.60;34.00;;;;;;4826048;29;20057;-70
2021/01/10 07:20:39;;;;;;;0.10;0.10;;;20.70;33.90;;;;;;4821932;29;20046;-70
2021/01/10 07:23:23;;;;;;;0.30;0.30;;;20.70;33.90;;;;;;4805442;29;20034;-69
2021/01/10 07:26:26;;;;;;;0.15;0.15;;;20.70;33.80;;;;;;4834241;29;20025;-69
2021/01/10 07:28:52;;;;;;;0.65;0.65;;;20.70;33.80;;;;;;4839446;29;20514;-72
2021/01/10 07:31:18;;;;;;;0.90;0.20;;;20.70;33.80;;;;;;4794721;29;20042;-73
2021/01/10 07:33:44;;;;;;;0.77;0.70;;;20.80;33.80;;;;;;4805950;29;20041;-70
2021/01/10 07:36:10;;;;;;;0.85;0.75;;;20.80;33.80;;;;;;4830057;29;20575;-71
2021/01/10 07:38:36;;;;;;;6.43;0.60;;;20.70;33.80;;;;;;4798955;29;20053;-71
2021/01/10 07:41:21;;;;;;;0.10;0.10;;;20.80;33.90;;;;;;4807637;29;20038;-70
2021/01/10 07:43:54;;;;;;;0.22;0.22;;;20.80;33.90;;;;;;4823201;29;20037;-73
2021/01/10 07:46:51;;;;;;;0.10;0.10;;;20.80;33.90;;;;;;4807799;29;20526;-71
2021/01/10 07:49:44;;;;;;;0.80;0.22;;;20.80;33.90;;;;;;4820555;29;20084;-71
2021/01/10 07:52:09;;;;;;;0.10;0.10;;;20.80;33.90;;;;;;4797424;29;20060;-71
2021/01/10 07:54:49;;;;;;;0.45;0.43;;;20.80;34.00;;;;;;4829132;29;20026;-71
2021/01/10 07:57:27;;;;;;;0.80;0.35;;;20.80;33.90;;;;;;4830876;29;20083;-70
2021/01/10 08:00:15;;;;;;;0.55;0.55;;;20.80;33.90;;;;;;4812247;29;20052;-71
2021/01/10 08:02:50;;;;;;;1.10;0.57;;;20.80;34.00;;;;;;4813120;29;20037;-70
2021/01/10 08:05:17;;;;;;;0.13;0.13;;;20.90;34.10;;;;;;4830977;29;20049;-72
2021/01/10 08:07:46;;;;;;;0.35;0.35;;;20.90;34.10;;;;;;4803722;29;20050;-72
2021/01/10 08:10:12;;;;;;;0.95;0.32;;;20.90;34.10;;;;;;4821177;29;20045;-71
2021/01/10 08:12:39;;;;;;;0.77;0.75;;;20.90;34.00;;;;;;4800264;29;20029;-72
2021/01/10 08:15:08;;;;;;;0.13;0.13;;;20.90;34.00;;;;;;4817328;29;20075;-72
2021/01/10 08:18:08;;;;;;;0.32;0.32;;;21.00;34.00;;;;;;4838251;29;20030;-72
2021/01/10 08:20:36;;;;;;;0.70;0.40;;;21.00;33.90;;;;;;4816180;29;20407;-72
2021/01/10 08:23:02;;;;;;;0.22;0.20;;;21.00;33.90;;;;;;4807742;29;20527;-72
2021/01/10 08:25:28;;;;;;;0.20;0.20;;;21.00;33.90;;;;;;4800145;29;20038;-72
2021/01/10 08:27:53;;;;;;;0.50;0.47;;;21.00;33.90;;;;;;4840015;29;20030;-72
2021/01/10 08:30:19;;;;;;;1.83;0.75;;;21.00;33.80;;;;;;4812440;29;20141;-72
2021/01/10 08:32:45;;;;;;;0.30;0.30;;;21.00;33.70;;;;;;4814745;29;20022;-72
2021/01/10 08:35:10;;;;;;;0.93;0.68;;;21.00;33.80;;;;;;4807240;29;20121;-72
2021/01/10 08:37:36;;;;;;;1.17;0.95;;;20.90;33.70;;;;;;4819375;29;20037;-74
2021/01/10 08:40:04;;;;;;;0.03;0.03;;;21.00;33.80;;;;;;4839871;29;20036;-74
2021/01/10 08:42:33;;;;;;;0.55;0.55;;;21.00;33.70;;;;;;4841727;29;20499;-74
2021/01/10 08:45:15;;;;;;;0.52;0.52;;;21.00;33.90;;;;;;4843374;29;20040;-74
2021/01/10 08:47:42;;;;;;;0.13;0.13;;;21.00;33.90;;;;;;4836137;29;20109;-74
2021/01/10 08:50:09;;;;;;;0.47;0.45;;;21.00;33.80;;;;;;4829737;29;20097;-73
2021/01/10 08:52:34;;;;;;;0.30;0.30;;;21.00;33.90;;;;;;4812841;29;20118;-74
2021/01/10 08:55:00;;;;;;;0.13;0.13;;;21.00;34.00;;;;;;4822374;29;20050;-75
2021/01/10 08:57:25;;;;;;;0.08;0.08;;;21.00;34.00;;;;;;4848668;29;20034;-74
2021/01/10 08:59:52;;;;;;;0.50;0.50;;;21.00;34.00;;;;;;4805220;29;20133;-72
2021/01/10 09:02:20;;;;;;;0.73;0.32;;;21.00;34.00;;;;;;4812621;29;20045;-72
2021/01/10 09:04:46;;;;;;;1.35;0.85;;;21.00;34.00;;;;;;4815006;29;20030;-72
2021/01/10 09:07:12;;;;;;;0.65;0.65;;;21.00;34.00;;;;;;4823552;29;20526;-73
2021/01/10 09:10:00;;;;;;;0.63;0.63;;;21.00;34.00;;;;;;4839616;29;20496;-73
2021/01/10 09:12:36;;;;;;;0.15;0.15;;;21.00;34.00;;;;;;4818090;29;20105;-72
2021/01/10 09:15:08;;;;;;;1.42;0.60;;;21.00;34.10;;;;;;4810562;29;20055;-72
2021/01/10 09:17:56;;;;;;;0.30;0.30;;;21.00;34.10;;;;;;4819349;29;20025;-71
2021/01/10 09:20:28;;;;;;;3.20;0.73;;;21.00;34.10;;;;;;4810732;29;20073;-72
2021/01/10 09:22:54;;;;;;;0.50;0.50;;;21.00;34.10;;;;;;4816922;29;20526;-72
2021/01/10 09:25:20;;;;;;;0.68;0.40;;;21.00;34.10;;;;;;4818586;29;20110;-71
2021/01/10 09:28:07;;;;;;;0.57;0.57;;;21.00;34.10;;;;;;4832322;29;20504;-72
2021/01/10 09:30:34;;;;;;;3.88;1.38;;;21.00;34.20;;;;;;4813262;29;20037;-71
2021/01/10 09:33:00;;;;;;;0.50;0.50;;;21.00;34.20;;;;;;4819004;29;20095;-73
2021/01/10 09:35:26;;;;;;;1.88;1.38;;;21.00;34.20;;;;;;4797440;29;20191;-72
2021/01/10 09:37:51;;;;;;;1.08;0.85;;;21.00;34.20;;;;;;4827665;29;20511;-73
2021/01/10 09:40:17;;;;;;;1.17;0.60;;;21.00;34.20;;;;;;4836986;29;20352;-72
2021/01/10 09:42:47;;;;;;;2.17;0.88;;;21.10;34.10;;;;;;4838027;29;20026;-74
2021/01/10 09:45:13;;;;;;;0.45;0.30;;;21.10;34.10;;;;;;4827610;29;20461;-73
2021/01/10 09:47:39;;;;;;;0.85;0.85;;;21.10;34.10;;;;;;4834591;29;20084;-71
2021/01/10 09:50:14;;;;;;;0.30;0.30;;;21.10;34.20;;;;;;4822009;29;20571;-72
2021/01/10 09:52:52;;;;;;;1.38;1.02;;;21.10;34.20;;;;;;4830831;29;20034;-72
2021/01/10 09:55:25;;;;;;;0.38;0.38;;;21.10;34.20;;;;;;4826095;29;20026;-72
2021/01/10 09:57:54;;;;;;;0.17;0.17;;;21.10;34.20;;;;;;4829203;29;20029;-72
2021/01/10 10:00:19;;;;;;;1.90;1.30;;;21.20;34.30;;;;;;4798309;29;20034;-74
2021/01/10 10:02:47;;;;;;;1.55;1.27;;;21.20;34.30;;;;;;4808263;29;20071;-73
2021/01/10 10:05:18;;;;;;;1.02;1.00;;;21.20;34.40;;;;;;4817925;29;20038;-72
2021/01/10 10:07:48;;;;;;;0.38;0.38;;;21.20;35.10;;;;;;4843751;29;20050;-72
2021/01/10 10:10:26;;;;;;;0.35;0.35;;;21.20;34.50;;;;;;4830489;29;20038;-72
2021/01/10 10:16:27;;;;;;;1.10;0.60;;;21.30;34.60;;;;;;4832762;29;20050;-72
2021/01/10 10:18:52;;;;;;;2.45;1.27;;;21.30;34.60;;;;;;4790568;29;20425;-72
2021/01/10 10:21:23;;;;;;;0.75;0.55;;;21.40;34.70;;;;;;4810624;29;20034;-72
2021/01/10 10:23:48;;;;;;;1.67;0.77;;;21.30;34.70;;;;;;4802198;29;20072;-73
2021/01/10 10:26:42;;;;;;;1.55;0.38;;;21.40;34.80;;;;;;4832933;29;20038;-73
2021/01/10 10:29:08;;;;;;;1.00;0.60;;;21.40;34.80;;;;;;4833685;29;20083;-72
2021/01/10 10:31:33;;;;;;;1.35;1.00;;;21.40;34.70;;;;;;4828071;29;20031;-73
2021/01/10 10:33:59;;;;;;;1.98;0.90;;;21.40;34.80;;;;;;4829730;29;20038;-83
2021/01/10 10:36:24;;;;;;;0.45;0.45;;;21.50;34.80;;;;;;4815168;29;20026;-78
2021/01/10 10:38:50;;;;;;;0.90;0.85;;;21.50;34.80;;;;;;4799377;29;20038;-81
2021/01/10 10:41:16;;;;;;;1.25;1.05;;;21.50;34.70;;;;;;4834994;29;20038;-74
2021/01/10 10:43:41;;;;;;;2.30;0.93;;;21.50;34.70;;;;;;4828650;29;20027;-76
2021/01/10 10:46:07;;;;;;;0.93;0.93;;;21.50;34.70;;;;;;4827789;29;20107;-74
2021/01/10 10:48:33;;;;;;;2.08;1.52;;;21.50;34.70;;;;;;4824021;29;20059;-72
2021/01/10 10:50:58;;;;;;;0.95;0.68;;;21.50;34.80;;;;;;4807196;29;20502;-72
2021/01/10 10:53:27;;;;;;;0.50;0.50;;;21.50;34.80;;;;;;4821394;29;20070;-72
2021/01/10 10:55:52;;;;;;;0.70;0.70;;;21.50;34.80;;;;;;4823239;29;20066;-70
2021/01/10 10:58:19;;;;;;;0.60;0.40;;;21.50;34.80;;;;;;4819179;29;20499;-72
2021/01/10 11:00:45;;;;;;;3.05;1.42;;;21.50;34.80;;;;;;4807666;29;20177;-72
2021/01/10 11:03:10;;;;;;;1.70;0.80;;;21.50;34.70;;;;;;4823452;29;20217;-72
2021/01/10 11:05:36;;;;;;;0.73;0.20;;;21.50;34.70;;;;;;4806572;29;20103;-72
2021/01/10 11:08:02;;;;;;;5.00;0.88;;;21.50;34.70;;;;;;4807453;29;20061;-71
2021/01/10 11:10:27;;;;;;;0.77;0.77;;;21.50;34.70;;;;;;4807095;29;20198;-74
2021/01/10 11:12:53;;;;;;;0.50;0.50;;;21.50;34.80;;;;;;4808013;29;20038;-71
2021/01/10 11:15:18;;;;;;;0.38;0.38;;;21.50;34.70;;;;;;4808408;29;20048;-71
2021/01/10 11:17:53;;;;;;;1.10;1.00;;;21.50;34.80;;;;;;4822620;29;20030;-71
2021/01/10 11:20:19;;;;;;;2.35;1.15;;;21.40;34.80;;;;;;4801935;29;20034;-71
2021/01/10 11:23:15;;;;;;;1.20;1.10;;;21.40;34.80;;;;;;4823676;29;20038;-71
2021/01/10 11:25:41;;;;;;;;;;;21.40;35.00;;;;;;4823842;29;20034;-73
2021/01/10 11:28:08;;;;;;;0.37;0.37;;;21.40;34.80;;;;;;4830338;29;19929;-74
2021/01/10 11:30:34;;;;;;;1.88;0.90;;;21.40;34.80;;;;;;4836587;29;20283;-74
2021/01/10 11:32:59;;;;;;;0.52;0.50;;;21.40;34.70;;;;;;4812299;29;20038;-72
2021/01/10 11:35:25;;;;;;;2.85;0.85;;;21.40;34.70;;;;;;4825682;29;20038;-73
2021/01/10 11:37:54;;;;;;;0.35;0.32;;;21.40;34.70;;;;;;4828526;29;20030;-73
2021/01/10 11:40:19;;;;;;;1.15;0.38;;;21.50;34.70;;;;;;4827941;29;20045;-72
2021/01/10 11:42:48;;;;;;;1.35;1.13;;;21.50;34.70;;;;;;4825622;29;20410;-74
2021/01/10 11:45:13;;;;;;;0.55;0.55;;;21.50;34.70;;;;;;4814401;29;20061;-73
2021/01/10 11:47:39;;;;;;;5.57;1.70;;;21.50;34.60;;;;;;4814328;29;20046;-74
2021/01/10 11:50:05;;;;;;;1.23;1.02;;;21.50;34.60;;;;;;4822833;29;20050;-74
2021/01/10 11:52:31;;;;;;;0.38;0.35;;;21.50;34.40;;;;;;4777169;29;20026;-72
2021/01/10 11:54:56;;;;;;;7.43;1.65;;;21.50;34.20;;;;;;4829773;29;20075;-71
2021/01/10 11:57:22;;;;;;;1.83;1.23;;;21.60;34.20;;;;;;4811477;29;20049;-71
2021/01/10 11:59:47;;;;;;;0.80;0.80;;;21.60;34.10;;;;;;4819952;29;20026;-73
2021/01/10 12:02:13;;;;;;;0.50;0.50;;;21.60;34.20;;;;;;4807186;29;20077;-72
2021/01/10 12:04:38;;;;;;;1.23;0.70;;;21.60;34.20;;;;;;4823380;29;20034;-72
2021/01/10 12:07:04;;;;;;;0.57;0.25;;;21.60;34.20;;;;;;4808691;29;20058;-69
2021/01/10 12:09:29;;;;;;;0.75;0.57;;;21.60;34.20;;;;;;4826617;29;20414;-70
2021/01/10 12:11:55;;;;;;;2.50;0.98;;;21.60;34.20;;;;;;4824033;29;20043;-70
2021/01/10 12:14:21;;;;;;;0.95;0.63;;;21.60;34.20;;;;;;4812684;29;20141;-70
2021/01/10 12:16:46;;;;;;;0.45;0.25;;;21.60;34.70;;;;;;4830872;29;20044;-71
2021/01/10 12:19:12;;;;;;;0.73;0.35;;;21.60;34.00;;;;;;4817267;29;20495;-71
2021/01/10 12:21:40;;;;;;;0.75;0.35;;;21.60;33.90;;;;;;4826293;29;20403;-71
2021/01/10 12:24:06;;;;;;;0.00;0.00;;;21.70;33.90;;;;;;4812361;29;20412;-70
2021/01/10 12:26:32;;;;;;;0.63;0.45;;;21.70;33.80;;;;;;4835796;29;20080;-71
2021/01/10 12:29:03;;;;;;;1.80;0.50;;;21.70;33.90;;;;;;4833034;29;20031;-71
2021/01/10 12:31:29;;;;;;;1.13;0.60;;;21.70;34.10;;;;;;4828833;29;20021;-70
2021/01/10 12:33:54;;;;;;;0.20;0.20;;;21.70;33.80;;;;;;4828512;29;20109;-70
2021/01/10 12:36:20;;;;;;;0.00;0.00;;;21.80;33.80;;;;;;4832360;29;20051;-71
2021/01/10 12:38:46;;;;;;;0.28;0.25;;;21.70;33.70;;;;;;4823395;29;20110;-71
2021/01/10 12:41:11;;;;;;;0.40;0.40;;;21.70;33.70;;;;;;4824316;29;20518;-71
2021/01/10 12:43:37;;;;;;;0.63;0.63;;;21.70;34.30;;;;;;4809049;29;20131;-71
2021/01/10 12:46:02;;;;;;;2.05;0.88;;;21.70;33.70;;;;;;4809083;29;20050;-71
2021/01/10 12:48:28;;;;;;;1.25;0.45;;;21.70;33.60;;;;;;4809822;29;20059;-70
2021/01/10 12:50:54;;;;;;;0.13;0.10;;;21.70;33.60;;;;;;4828274;29;20054;-69
2021/01/10 12:53:22;;;;;;;0.28;0.10;;;21.70;33.70;;;;;;4826969;29;20034;-69
2021/01/10 12:55:51;;;;;;;4.60;0.93;;;21.60;33.50;;;;;;4825030;29;20038;-69
2021/01/10 12:58:29;;;;;;;3.40;1.42;;;21.60;33.50;;;;;;4829943;29;21426;-68
2021/01/10 13:00:55;;;;;;;1.30;0.95;;;21.60;33.40;;;;;;4807956;29;20092;-70
2021/01/10 13:03:23;;;;;;;1.65;0.52;;;21.50;33.50;;;;;;4806696;29;20537;-70
2021/01/10 13:05:49;;;;;;;1.90;0.88;;;21.50;33.60;;;;;;4830330;29;20529;-69
2021/01/10 13:08:14;;;;;;;0.17;0.17;;;21.50;33.70;;;;;;4827824;29;20038;-69
2021/01/10 13:10:43;;;;;;;0.35;0.35;;;21.50;33.70;;;;;;4822904;29;20071;-70
2021/01/10 13:13:09;;;;;;;0.13;0.13;;;21.50;33.70;;;;;;4818611;29;20121;-70
2021/01/10 13:15:34;;;;;;;2.72;0.93;;;21.50;33.70;;;;;;4837390;29;20034;-70
2021/01/10 13:18:00;;;;;;;0.10;0.10;;;21.50;33.70;;;;;;4813056;29;20019;-70
2021/01/10 13:20:25;;;;;;;0.75;0.38;;;21.50;33.70;;;;;;4837707;29;20026;-70
2021/01/10 13:22:51;;;;;;;0.03;0.03;;;21.50;33.80;;;;;;4829364;29;20037;-69
2021/01/10 13:25:17;;;;;;;0.40;0.40;;;21.40;33.70;;;;;;4829283;29;20038;-70
2021/01/10 13:27:43;;;;;;;0.47;0.47;;;21.50;33.80;;;;;;4825130;29;20522;-70
2021/01/10 13:30:27;;;;;;;0.57;0.57;;;21.50;33.70;;;;;;4801744;29;20068;-69
2021/01/10 13:32:53;;;;;;;0.35;0.35;;;21.40;33.80;;;;;;4837070;29;20065;-69
2021/01/10 13:35:19;;;;;;;0.43;0.40;;;21.40;33.80;;;;;;4825946;29;20447;-69
2021/01/10 13:37:48;;;;;;;1.70;0.30;;;21.40;33.80;;;;;;4801355;29;20443;-69
2021/01/10 13:40:14;;;;;;;0.20;0.20;;;21.40;33.70;;;;;;4820910;29;20102;-68
2021/01/10 13:43:29;;;;;;;0.03;0.03;;;21.40;33.80;;;;;;4820640;29;20407;-70
2021/01/10 13:45:55;;;;;;;0.45;0.20;;;21.40;33.90;;;;;;4825148;29;20041;-70
2021/01/10 13:48:20;;;;;;;1.75;0.57;;;21.40;33.90;;;;;;4830543;29;20030;-69
2021/01/10 13:50:46;;;;;;;0.35;0.35;;;21.40;33.90;;;;;;4834777;29;20041;-70
2021/01/10 13:53:13;;;;;;;0.55;0.45;;;21.40;33.90;;;;;;4808528;29;20172;-70
2021/01/10 13:55:45;;;;;;;0.00;0.00;;;21.40;34.00;;;;;;4807948;29;20030;-70
2021/01/10 13:58:20;;;;;;;9.80;0.82;;;21.40;34.00;;;;;;4812831;29;20095;-70
2021/01/10 14:00:50;;;;;;;0.53;0.30;;;21.40;34.20;;;;;;4829460;29;20033;-70
2021/01/10 14:03:15;;;;;;;0.38;0.38;;;21.40;34.10;;;;;;4815840;29;20129;-70
2021/01/10 14:05:41;;;;;;;0.00;0.00;;;21.40;34.20;;;;;;4824201;29;20563;-69
2021/01/10 14:08:06;;;;;;;0.85;0.10;;;21.50;34.30;;;;;;4819465;29;20440;-69
2021/01/10 14:10:32;;;;;;;0.65;0.55;;;21.50;34.20;;;;;;4836765;29;20151;-69
2021/01/10 14:12:57;;;;;;;0.55;0.30;;;21.50;34.20;;;;;;4816169;29;20042;-69
2021/01/10 14:15:23;;;;;;;1.08;0.35;;;21.50;34.30;;;;;;4814665;29;20027;-69
2021/01/10 14:17:49;;;;;;;0.35;0.30;;;21.50;34.30;;;;;;4825109;29;20498;-69
2021/01/10 14:20:14;;;;;;;0.70;0.70;;;21.50;34.20;;;;;;4811517;29;20037;-69